Time;durP1;ratioP1;P1;durP2;ratioP2;P2;SDS_P1;SDS_P2;PMS_P1;PMS_P2;Temp;Humidity;BMP_temperature;BMP_pressure;BME280_temperature;BME280_humidity;BME280_pressure;Samples;Min_cycle;Max_cycle;Signal;HPM_P1;HPM_P2
2022/07/10 00:00:00;;;;;;;5.47;4.50;;;19.70;83.10;;;;;;5053971;28;20877;-50
2022/07/10 00:02:28;;;;;;;4.40;4.00;;;19.70;83.10;;;;;;5062190;28;20539;-50
2022/07/10 00:04:55;;;;;;;5.50;3.97;;;19.60;82.50;;;;;;5062010;28;20520;-51
2022/07/10 00:07:22;;;;;;;3.40;3.10;;;19.50;82.50;;;;;;5053493;28;20489;-50
2022/07/10 00:09:48;;;;;;;4.40;3.83;;;19.50;83.10;;;;;;5059678;28;20856;-51
2022/07/10 00:12:15;;;;;;;4.70;3.33;;;19.40;82.50;;;;;;5063218;28;20970;-52
2022/07/10 00:14:42;;;;;;;5.27;4.23;;;19.30;83.00;;;;;;5066143;28;20487;-50
2022/07/10 00:17:08;;;;;;;5.70;3.07;;;19.30;82.50;;;;;;5042969;28;20486;-50
2022/07/10 00:19:36;;;;;;;4.03;3.63;;;19.20;82.40;;;;;;5057706;28;20480;-49
2022/07/10 00:22:04;;;;;;;3.87;3.37;;;19.10;82.10;;;;;;5064297;28;20500;-50
2022/07/10 00:24:30;;;;;;;4.70;3.40;;;19.10;82.10;;;;;;5063283;28;20897;-51
2022/07/10 00:26:57;;;;;;;7.10;2.97;;;19.10;82.30;;;;;;5059366;28;21030;-51
2022/07/10 00:29:24;;;;;;;6.90;3.83;;;19.00;82.10;;;;;;5062918;28;20485;-50
2022/07/10 00:31:50;;;;;;;3.43;3.10;;;19.00;82.40;;;;;;5057154;28;20478;-50
2022/07/10 00:34:17;;;;;;;7.13;3.43;;;19.00;82.40;;;;;;5062683;28;20474;-50
2022/07/10 00:36:45;;;;;;;3.60;3.30;;;19.00;82.40;;;;;;5049039;28;20507;-50
2022/07/10 00:39:12;;;;;;;6.37;3.37;;;19.00;83.00;;;;;;5050367;28;20966;-50
2022/07/10 00:41:38;;;;;;;4.40;3.00;;;18.90;82.50;;;;;;5056678;28;20477;-50
2022/07/10 00:44:05;;;;;;;4.20;3.00;;;18.90;83.10;;;;;;5059999;28;20491;-50
2022/07/10 00:46:33;;;;;;;3.27;2.97;;;18.90;83.20;;;;;;5058484;28;20489;-50
2022/07/10 00:49:00;;;;;;;7.70;3.00;;;18.80;82.60;;;;;;5061139;28;20484;-50
2022/07/10 00:51:28;;;;;;;4.30;2.70;;;18.80;83.20;;;;;;5063104;28;20824;-50
2022/07/10 00:53:57;;;;;;;6.23;3.03;;;18.80;83.10;;;;;;5065271;28;20475;-50
2022/07/10 00:56:25;;;;;;;3.23;2.70;;;18.80;82.60;;;;;;5058567;28;20480;-50
2022/07/10 00:58:52;;;;;;;3.20;2.47;;;18.80;82.70;;;;;;5056561;28;20620;-49
2022/07/10 01:01:19;;;;;;;2.93;2.63;;;18.70;82.60;;;;;;5062500;28;20473;-49
2022/07/10 01:03:47;;;;;;;9.63;2.53;;;18.60;83.10;;;;;;5061237;28;20471;-49
2022/07/10 01:06:14;;;;;;;5.83;3.20;;;18.60;82.90;;;;;;5063125;28;20460;-50
2022/07/10 01:08:41;;;;;;;4.00;3.23;;;18.60;83.10;;;;;;5047611;28;20952;-49
2022/07/10 01:11:09;;;;;;;2.83;2.40;;;18.60;83.60;;;;;;5065808;28;20979;-50
2022/07/10 01:13:36;;;;;;;9.30;3.40;;;18.60;83.30;;;;;;5064145;28;20475;-49
2022/07/10 01:16:04;;;;;;;6.53;3.40;;;18.60;83.20;;;;;;5063042;28;20818;-49
2022/07/10 01:18:31;;;;;;;5.93;3.30;;;18.60;83.40;;;;;;5037651;28;21346;-50
2022/07/10 01:20:59;;;;;;;5.60;2.93;;;18.60;83.10;;;;;;5062030;28;20471;-49
2022/07/10 01:23:26;;;;;;;6.33;2.77;;;18.50;83.10;;;;;;5060173;28;20994;-50
2022/07/10 01:25:53;;;;;;;3.53;2.80;;;18.50;83.80;;;;;;5059752;28;20993;-51
2022/07/10 01:28:22;;;;;;;4.40;3.17;;;18.40;83.40;;;;;;5054186;28;20507;-50
2022/07/10 01:30:49;;;;;;;4.67;2.53;;;18.30;83.60;;;;;;5052858;28;20491;-51
2022/07/10 01:33:15;;;;;;;2.73;2.30;;;18.30;83.70;;;;;;5053867;28;20595;-49
2022/07/10 01:35:42;;;;;;;2.70;2.50;;;18.30;83.70;;;;;;5054187;28;20490;-50
2022/07/10 01:38:10;;;;;;;7.93;2.77;;;18.20;83.60;;;;;;5043067;28;20476;-52
2022/07/10 01:40:37;;;;;;;5.27;3.23;;;18.20;83.60;;;;;;5058129;28;20487;-49
2022/07/10 01:43:04;;;;;;;4.23;2.53;;;18.20;83.90;;;;;;5057417;28;20563;-49
2022/07/10 01:45:30;;;;;;;6.70;3.23;;;18.20;83.80;;;;;;5054771;28;20475;-49
2022/07/10 01:47:57;;;;;;;3.80;2.40;;;18.20;84.20;;;;;;5047179;28;20478;-50
2022/07/10 01:50:24;;;;;;;4.33;3.17;;;18.10;83.90;;;;;;5062777;28;20546;-50
2022/07/10 01:52:51;;;;;;;8.33;2.53;;;18.10;84.00;;;;;;5058731;28;20509;-51
2022/07/10 01:55:19;;;;;;;4.23;2.47;;;18.10;83.90;;;;;;5060368;28;20483;-50
2022/07/10 01:57:46;;;;;;;3.37;3.07;;;18.10;84.40;;;;;;5054923;28;20506;-50
2022/07/10 02:00:13;;;;;;;7.30;2.50;;;18.00;83.90;;;;;;5058582;28;20479;-50
2022/07/10 02:02:40;;;;;;;3.00;2.70;;;18.00;83.90;;;;;;5059379;28;20486;-50
2022/07/10 02:05:07;;;;;;;4.30;2.50;;;18.00;83.90;;;;;;5062980;28;20487;-50
2022/07/10 02:07:33;;;;;;;3.70;3.43;;;18.00;83.80;;;;;;5058881;28;21223;-50
2022/07/10 02:10:00;;;;;;;3.60;3.30;;;18.00;83.90;;;;;;5059138;28;20491;-50
2022/07/10 02:12:28;;;;;;;4.80;4.27;;;18.00;83.80;;;;;;5058437;28;20486;-50
2022/07/10 02:14:59;;;;;;;12.67;3.43;;;18.00;83.80;;;;;;5059696;28;20493;-50
2022/07/10 02:17:26;;;;;;;4.90;3.10;;;18.00;83.70;;;;;;5049770;28;20908;-49
2022/07/10 02:19:52;;;;;;;3.50;2.70;;;18.00;83.60;;;;;;5057434;28;21234;-49
2022/07/10 02:22:19;;;;;;;12.20;3.00;;;18.00;83.70;;;;;;5045456;28;21441;-49
2022/07/10 02:24:46;;;;;;;3.23;3.03;;;17.90;83.50;;;;;;5061587;28;20936;-49
2022/07/10 02:27:12;;;;;;;6.83;3.20;;;17.80;83.40;;;;;;5057795;28;20942;-50
2022/07/10 02:29:40;;;;;;;5.90;3.30;;;17.80;84.00;;;;;;5060580;28;20479;-50
2022/07/10 02:32:08;;;;;;;4.40;3.00;;;17.70;84.00;;;;;;5051766;28;20483;-50
2022/07/10 02:34:35;;;;;;;5.17;4.13;;;17.70;84.10;;;;;;5053876;28;20973;-49
2022/07/10 02:37:01;;;;;;;3.73;3.27;;;17.70;84.00;;;;;;5053187;28;20479;-49
2022/07/10 02:39:28;;;;;;;4.60;4.20;;;17.70;84.00;;;;;;5057981;28;20498;-49
2022/07/10 02:41:55;;;;;;;2.87;2.50;;;17.60;84.80;;;;;;5049706;28;21052;-50
2022/07/10 02:44:21;;;;;;;3.80;3.50;;;17.60;84.00;;;;;;5048505;28;20484;-49
2022/07/10 02:46:49;;;;;;;11.70;3.67;;;17.50;84.00;;;;;;5056216;28;20939;-50
2022/07/10 02:49:16;;;;;;;5.20;2.97;;;17.50;84.20;;;;;;5059526;28;20590;-50
2022/07/10 02:51:43;;;;;;;9.53;2.70;;;17.30;83.80;;;;;;5061276;28;20848;-49
2022/07/10 02:54:09;;;;;;;7.67;3.57;;;17.30;84.30;;;;;;5061341;28;20976;-50
2022/07/10 02:56:36;;;;;;;5.50;4.30;;;17.30;84.20;;;;;;5052916;28;20495;-49
2022/07/10 02:59:03;;;;;;;4.90;2.83;;;17.20;83.70;;;;;;5050949;28;20524;-49
2022/07/10 03:01:30;;;;;;;4.50;4.20;;;17.10;84.00;;;;;;5050384;28;20482;-49
2022/07/10 03:03:58;;;;;;;7.70;3.00;;;17.00;84.00;;;;;;5058160;28;20476;-51
2022/07/10 03:06:25;;;;;;;4.50;3.87;;;16.90;84.20;;;;;;5058105;28;20491;-49
2022/07/10 03:08:52;;;;;;;4.80;3.10;;;16.80;84.20;;;;;;5043442;28;20534;-49
2022/07/10 03:11:18;;;;;;;3.57;3.00;;;16.70;84.70;;;;;;5057507;28;21086;-48
2022/07/10 03:13:45;;;;;;;2.70;2.50;;;16.50;84.80;;;;;;5058280;28;20478;-49
2022/07/10 03:16:13;;;;;;;7.03;3.67;;;16.50;84.90;;;;;;5045594;28;20498;-49
2022/07/10 03:18:40;;;;;;;3.30;3.00;;;16.20;85.40;;;;;;5034745;28;20491;-49
2022/07/10 03:21:08;;;;;;;6.00;3.40;;;16.10;86.20;;;;;;5051782;28;20891;-49
2022/07/10 03:23:34;;;;;;;6.37;4.70;;;15.90;86.70;;;;;;5040680;28;20483;-48
2022/07/10 03:26:01;;;;;;;4.53;3.13;;;15.80;86.70;;;;;;5057875;28;21012;-49
2022/07/10 03:28:28;;;;;;;4.40;3.80;;;15.80;87.40;;;;;;5041408;28;20505;-48
2022/07/10 03:30:54;;;;;;;6.73;3.10;;;15.80;87.50;;;;;;5058925;28;20498;-49
2022/07/10 03:33:21;;;;;;;5.90;3.67;;;15.80;87.00;;;;;;5052819;28;20510;-49
2022/07/10 03:35:48;;;;;;;3.30;3.00;;;15.70;86.80;;;;;;5060516;28;20848;-49
2022/07/10 03:38:16;;;;;;;4.63;3.53;;;15.70;87.00;;;;;;5058391;28;20507;-49
2022/07/10 03:40:43;;;;;;;6.23;3.70;;;15.30;87.00;;;;;;5057057;28;20494;-49
2022/07/10 03:43:09;;;;;;;3.30;2.70;;;15.20;87.80;;;;;;5057027;28;20579;-49
2022/07/10 03:45:36;;;;;;;7.80;4.43;;;15.10;88.00;;;;;;5061660;28;20482;-50
2022/07/10 03:48:03;;;;;;;4.30;2.93;;;15.00;87.70;;;;;;5054431;28;21121;-48
2022/07/10 03:50:30;;;;;;;4.00;3.70;;;14.70;89.30;;;;;;5065732;28;21060;-49
2022/07/10 03:52:56;;;;;;;14.90;3.77;;;14.60;90.10;;;;;;5059285;28;20887;-49
2022/07/10 03:55:24;;;;;;;5.57;4.13;;;14.60;90.20;;;;;;5057907;28;21027;-49
2022/07/10 03:57:53;;;;;;;3.40;3.10;;;14.60;90.20;;;;;;5055629;28;20482;-49
2022/07/10 04:00:21;;;;;;;9.37;4.20;;;14.70;90.40;;;;;;5058603;28;20490;-49
2022/07/10 04:02:48;;;;;;;4.20;3.43;;;14.70;89.80;;;;;;5051684;28;20781;-49
2022/07/10 04:05:16;;;;;;;3.50;3.20;;;14.80;90.10;;;;;;5049431;28;20491;-49
2022/07/10 04:07:43;;;;;;;3.07;2.57;;;14.90;88.70;;;;;;5054488;28;20486;-49
2022/07/10 04:10:10;;;;;;;6.87;2.90;;;14.90;88.90;;;;;;5055162;28;20484;-49
2022/07/10 04:12:38;;;;;;;4.67;4.27;;;14.90;89.10;;;;;;5054599;28;20872;-49
2022/07/10 04:15:06;;;;;;;6.33;4.17;;;14.90;89.80;;;;;;5060108;28;20579;-49
2022/07/10 04:17:33;;;;;;;15.53;5.90;;;14.90;89.50;;;;;;5043798;28;20483;-49
2022/07/10 04:20:00;;;;;;;4.90;3.70;;;15.00;89.90;;;;;;5057140;28;20573;-49
2022/07/10 04:22:27;;;;;;;7.30;5.20;;;15.00;90.20;;;;;;5060947;28;21076;-48
2022/07/10 04:24:54;;;;;;;7.47;3.97;;;15.10;89.50;;;;;;5057052;28;20505;-48
2022/07/10 04:27:20;;;;;;;3.47;3.13;;;15.10;88.20;;;;;;5065598;28;20494;-48
2022/07/10 04:29:49;;;;;;;5.17;3.47;;;15.10;88.00;;;;;;5070083;28;20482;-49
2022/07/10 04:32:16;;;;;;;4.67;3.33;;;15.00;87.60;;;;;;5064798;28;20483;-49
2022/07/10 04:34:43;;;;;;;7.20;3.20;;;15.10;87.60;;;;;;5065947;28;21070;-49
2022/07/10 04:37:10;;;;;;;3.80;3.30;;;14.90;88.70;;;;;;5058657;28;20492;-49
2022/07/10 04:39:37;;;;;;;6.43;4.40;;;14.90;89.30;;;;;;5062483;28;20489;-49
2022/07/10 04:42:04;;;;;;;7.20;3.50;;;14.90;88.70;;;;;;5034031;28;21025;-48
2022/07/10 04:44:31;;;;;;;8.03;5.43;;;14.90;89.40;;;;;;5061482;28;20494;-48
2022/07/10 04:47:00;;;;;;;4.07;3.70;;;14.90;89.30;;;;;;5061110;28;20565;-49
2022/07/10 04:49:27;;;;;;;5.30;4.63;;;14.90;90.00;;;;;;5060874;28;21282;-48
2022/07/10 04:51:53;;;;;;;5.13;4.57;;;15.10;90.10;;;;;;5062252;28;20493;-49
2022/07/10 04:54:20;;;;;;;4.67;4.27;;;15.10;90.20;;;;;;5061061;28;20486;-49
2022/07/10 04:56:47;;;;;;;13.77;5.33;;;15.30;90.20;;;;;;5063744;28;20570;-50
2022/07/10 04:59:14;;;;;;;7.90;6.37;;;15.40;90.30;;;;;;5065029;28;20483;-51
2022/07/10 05:01:40;;;;;;;9.90;6.00;;;15.40;90.60;;;;;;5063138;28;21284;-50
2022/07/10 05:04:09;;;;;;;8.40;5.50;;;15.70;90.40;;;;;;5061757;28;20496;-50
2022/07/10 05:06:36;;;;;;;7.27;5.07;;;15.90;89.80;;;;;;5057724;28;20613;-51
2022/07/10 05:09:03;;;;;;;10.37;4.40;;;16.10;89.30;;;;;;5059966;28;20471;-50
2022/07/10 05:11:31;;;;;;;8.13;5.80;;;16.20;88.30;;;;;;5064180;28;20486;-50
2022/07/10 05:13:58;;;;;;;8.10;4.60;;;16.30;87.70;;;;;;5058207;28;20494;-50
2022/07/10 05:16:24;;;;;;;5.10;4.70;;;16.40;87.30;;;;;;5063185;28;21247;-50
2022/07/10 05:18:51;;;;;;;4.20;2.80;;;16.40;87.50;;;;;;5063557;28;20565;-50
2022/07/10 05:21:19;;;;;;;4.50;4.10;;;16.40;87.20;;;;;;5061743;28;20466;-49
2022/07/10 05:23:46;;;;;;;3.40;3.10;;;16.40;86.80;;;;;;5066022;28;20529;-50
2022/07/10 05:26:13;;;;;;;4.20;3.30;;;16.40;87.10;;;;;;5053247;28;20500;-50
2022/07/10 05:28:39;;;;;;;3.37;3.07;;;16.40;86.80;;;;;;5055071;28;20562;-51
2022/07/10 05:31:06;;;;;;;3.60;3.20;;;16.40;85.30;;;;;;5060825;28;20475;-49
2022/07/10 05:33:33;;;;;;;9.13;3.93;;;16.50;84.60;;;;;;5060466;28;20479;-49
2022/07/10 05:36:00;;;;;;;4.23;3.10;;;16.50;84.90;;;;;;5060135;28;20466;-49
2022/07/10 05:38:28;;;;;;;6.73;3.57;;;16.60;85.00;;;;;;5048995;28;20933;-49
2022/07/10 05:40:55;;;;;;;4.80;2.63;;;16.70;85.90;;;;;;5056712;28;20806;-48
2022/07/10 05:43:21;;;;;;;4.60;2.63;;;16.80;84.90;;;;;;5054055;28;20502;-49
2022/07/10 05:45:48;;;;;;;9.83;3.20;;;16.80;84.30;;;;;;5065271;28;20478;-49
2022/07/10 05:48:15;;;;;;;4.63;3.00;;;16.80;84.30;;;;;;5058233;28;20474;-50
2022/07/10 05:50:42;;;;;;;4.53;2.67;;;16.90;83.90;;;;;;5065668;28;20482;-48
2022/07/10 05:53:08;;;;;;;4.00;2.40;;;16.90;84.10;;;;;;5061304;28;20482;-48
2022/07/10 05:55:36;;;;;;;7.50;2.90;;;17.00;83.60;;;;;;5059501;28;20467;-48
2022/07/10 05:58:03;;;;;;;3.30;2.23;;;17.00;82.70;;;;;;5049587;28;21044;-48
2022/07/10 06:00:30;;;;;;;5.80;3.83;;;17.10;82.60;;;;;;5058555;28;20998;-48
2022/07/10 06:02:56;;;;;;;4.20;1.90;;;17.20;81.90;;;;;;5049548;28;20499;-48
2022/07/10 06:05:23;;;;;;;10.33;2.73;;;17.20;81.60;;;;;;5058220;28;20856;-48
2022/07/10 06:07:50;;;;;;;4.97;2.03;;;17.20;81.90;;;;;;5055542;28;20484;-48
2022/07/10 06:10:16;;;;;;;2.70;1.73;;;17.20;81.30;;;;;;5060284;28;20474;-48
2022/07/10 06:12:44;;;;;;;4.60;1.93;;;17.20;81.70;;;;;;5060247;28;20813;-48
2022/07/10 06:15:12;;;;;;;4.23;1.90;;;17.30;81.50;;;;;;5061144;28;20475;-49
2022/07/10 06:17:38;;;;;;;3.00;1.80;;;17.40;82.10;;;;;;5027343;28;20545;-48
2022/07/10 06:20:06;;;;;;;4.57;2.10;;;17.70;79.80;;;;;;5052742;28;20482;-49
2022/07/10 06:22:33;;;;;;;5.93;2.13;;;17.70;79.60;;;;;;5058052;28;21487;-50
2022/07/10 06:25:01;;;;;;;3.10;1.83;;;17.90;78.30;;;;;;5053008;28;20514;-50
2022/07/10 06:27:28;;;;;;;3.20;2.37;;;17.90;78.70;;;;;;5048206;28;21125;-49
2022/07/10 06:29:56;;;;;;;2.20;1.60;;;17.90;78.40;;;;;;5048438;28;20495;-49
2022/07/10 06:32:24;;;;;;;6.10;1.57;;;17.90;78.70;;;;;;5057595;28;20486;-48
2022/07/10 06:34:51;;;;;;;5.20;2.03;;;18.00;77.60;;;;;;5060696;28;20486;-50
2022/07/10 06:37:18;;;;;;;3.20;1.73;;;18.00;77.80;;;;;;5061449;28;21236;-50
2022/07/10 06:39:46;;;;;;;4.00;1.83;;;18.10;77.70;;;;;;5055490;28;20957;-50
2022/07/10 06:42:13;;;;;;;2.60;1.63;;;18.10;78.20;;;;;;5058200;28;20482;-48
2022/07/10 06:44:40;;;;;;;4.70;1.73;;;18.30;76.70;;;;;;5054318;28;20490;-49
2022/07/10 06:49:55;;;;;;;7.43;1.93;;;18.50;75.20;;;;;;5055733;28;20482;-49
2022/07/10 06:52:22;;;;;;;3.43;1.83;;;18.60;75.20;;;;;;5052420;28;20488;-48
2022/07/10 06:54:48;;;;;;;2.10;1.40;;;18.60;75.80;;;;;;5057321;28;20475;-50
2022/07/10 06:57:17;;;;;;;10.87;3.07;;;;;;;;;;5051713;28;20515;-48
2022/07/10 06:59:44;;;;;;;2.10;1.80;;;18.40;75.70;;;;;;5049354;28;20968;-52
2022/07/10 07:02:12;;;;;;;6.43;1.80;;;18.40;75.70;;;;;;5056555;28;20470;-49
2022/07/10 07:04:39;;;;;;;3.10;1.87;;;18.50;76.00;;;;;;5056473;28;20482;-49
2022/07/10 07:07:05;;;;;;;2.20;1.57;;;18.70;75.40;;;;;;5058066;28;20498;-49
2022/07/10 07:09:32;;;;;;;4.97;2.80;;;18.80;75.90;;;;;;5056481;28;20487;-49
2022/07/10 07:11:58;;;;;;;3.03;1.67;;;19.30;75.10;;;;;;5059959;28;20882;-49
2022/07/10 07:14:25;;;;;;;3.10;1.73;;;19.30;75.70;;;;;;5058767;28;21289;-50
2022/07/10 07:17:00;;;;;;;9.67;2.17;;;19.50;74.80;;;;;;5055807;28;20485;-50
2022/07/10 07:23:09;;;;;;;5.43;1.97;;;19.90;74.20;;;;;;5053314;28;21294;-48
2022/07/10 07:25:08;;;;;;;5.30;1.87;;;20.30;71.70;;;;;;5053542;28;20522;-49
2022/07/10 07:27:37;;;;;;;4.30;2.30;;;20.40;72.00;;;;;;5052213;28;20477;-49
2022/07/10 07:30:06;;;;;;;3.00;1.33;;;20.50;71.50;;;;;;5057744;28;20491;-49
2022/07/10 07:32:33;;;;;;;2.07;1.60;;;20.60;71.50;;;;;;5053738;28;20483;-48
2022/07/10 07:35:01;;;;;;;3.87;1.50;;;20.80;72.20;;;;;;5057117;28;20536;-49
2022/07/10 07:37:39;;;;;;;2.90;1.50;;;20.80;68.70;;;;;;5057362;28;20494;-49
2022/07/10 07:40:07;;;;;;;2.60;2.07;;;20.90;69.20;;;;;;5059251;28;20489;-48
2022/07/10 07:42:34;;;;;;;3.50;1.40;;;20.90;70.30;;;;;;5051087;28;20489;-50
2022/07/10 07:45:01;;;;;;;4.77;1.53;;;21.00;71.50;;;;;;5051683;28;20818;-49
2022/07/10 07:47:28;;;;;;;4.37;2.00;;;21.30;69.90;;;;;;5057324;28;20484;-49
2022/07/10 07:49:55;;;;;;;3.80;1.43;;;21.40;69.10;;;;;;5049206;28;20585;-49
2022/07/10 07:52:23;;;;;;;2.93;1.57;;;21.40;69.90;;;;;;5063761;28;21207;-49
2022/07/10 07:54:50;;;;;;;3.60;1.10;;;21.60;69.20;;;;;;5063967;28;20506;-50
2022/07/10 07:57:17;;;;;;;5.20;2.07;;;21.70;68.90;;;;;;5059199;28;20606;-49
2022/07/10 07:59:44;;;;;;;3.10;1.50;;;21.70;69.40;;;;;;5061527;28;20489;-49
2022/07/10 08:02:11;;;;;;;2.83;1.37;;;21.90;68.70;;;;;;5057815;28;20486;-49
2022/07/10 08:04:37;;;;;;;5.70;1.90;;;22.10;69.20;;;;;;5060364;28;20516;-49
2022/07/10 08:07:05;;;;;;;1.90;0.83;;;22.20;68.10;;;;;;5060019;28;20482;-49
2022/07/10 08:09:33;;;;;;;2.33;1.70;;;22.20;65.60;;;;;;5062188;28;20502;-50
2022/07/10 08:11:59;;;;;;;3.03;1.10;;;22.30;66.80;;;;;;5064461;28;20503;-50
2022/07/10 08:14:26;;;;;;;2.17;1.30;;;22.40;68.90;;;;;;5054749;28;20513;-49
2022/07/10 08:16:53;;;;;;;3.23;1.70;;;22.60;66.50;;;;;;5059074;28;21396;-49
2022/07/10 08:19:20;;;;;;;4.57;1.70;;;22.80;67.80;;;;;;5061851;28;20898;-49
2022/07/10 08:21:46;;;;;;;7.07;1.77;;;22.80;65.70;;;;;;5061175;28;20479;-49
2022/07/10 08:24:14;;;;;;;4.93;1.50;;;22.90;65.70;;;;;;5066485;28;20554;-49
2022/07/10 08:26:43;;;;;;;4.03;1.30;;;22.90;65.10;;;;;;5058694;28;20463;-50
2022/07/10 08:29:10;;;;;;;5.07;1.10;;;22.70;64.50;;;;;;5046549;28;20498;-50
2022/07/10 08:31:36;;;;;;;2.53;1.30;;;22.70;64.60;;;;;;5063333;28;21229;-49
2022/07/10 08:34:03;;;;;;;3.70;1.30;;;22.30;64.60;;;;;;5062668;28;20486;-50
2022/07/10 08:36:30;;;;;;;4.23;1.70;;;22.30;65.30;;;;;;5057945;28;20489;-50
2022/07/10 08:38:58;;;;;;;4.80;1.40;;;22.30;66.00;;;;;;5061393;28;20498;-51
2022/07/10 08:41:27;;;;;;;3.50;1.37;;;22.40;66.50;;;;;;5060864;28;20549;-50
2022/07/10 08:43:55;;;;;;;3.63;1.13;;;22.40;65.90;;;;;;5062324;28;20474;-49
2022/07/10 08:46:22;;;;;;;2.00;1.10;;;22.60;64.40;;;;;;5058205;28;20486;-49
2022/07/10 08:48:54;;;;;;;3.27;1.00;;;22.80;64.50;;;;;;5058203;28;20475;-50
2022/07/10 08:51:26;;;;;;;2.90;1.00;;;22.80;64.80;;;;;;5062480;28;20486;-50
2022/07/10 08:53:54;;;;;;;2.53;1.20;;;22.70;63.60;;;;;;5059356;28;20479;-50
2022/07/10 08:56:20;;;;;;;1.97;1.10;;;22.80;64.00;;;;;;5060053;28;21289;-50
2022/07/10 08:58:48;;;;;;;3.00;1.13;;;22.80;63.60;;;;;;5062628;28;20479;-51
2022/07/10 09:01:22;;;;;;;3.20;0.87;;;23.00;64.70;;;;;;5060450;28;20467;-50
2022/07/10 09:03:50;;;;;;;2.77;1.13;;;23.20;65.80;;;;;;5061625;28;20471;-54
2022/07/10 09:06:16;;;;;;;2.00;1.00;;;23.20;64.60;;;;;;5058886;28;20532;-50
2022/07/10 09:09:02;;;;;;;3.97;1.07;;;23.20;62.80;;;;;;5054589;28;20972;-49
2022/07/10 09:11:32;;;;;;;2.80;1.00;;;23.30;63.50;;;;;;5057618;28;20482;-51
2022/07/10 09:14:02;;;;;;;4.40;1.07;;;23.50;64.20;;;;;;5062704;28;20834;-50
2022/07/10 09:16:33;;;;;;;2.30;1.30;;;23.70;64.10;;;;;;5060130;28;20476;-50
2022/07/10 09:19:17;;;;;;;5.60;0.90;;;23.70;60.40;;;;;;5048887;28;20510;-50
2022/07/10 09:21:43;;;;;;;2.90;1.00;;;23.70;60.20;;;;;;5052274;28;21085;-52
2022/07/10 09:24:10;;;;;;;3.40;1.20;;;23.60;61.30;;;;;;5054434;28;20490;-51
2022/07/10 09:26:38;;;;;;;4.00;1.20;;;23.60;63.10;;;;;;5053153;28;20495;-52
2022/07/10 09:29:08;;;;;;;2.87;0.97;;;23.70;62.50;;;;;;5059814;28;20502;-50
2022/07/10 09:31:52;;;;;;;2.73;1.00;;;24.00;61.50;;;;;;5059473;28;20650;-51
2022/07/10 09:34:35;;;;;;;2.73;1.33;;;24.10;62.10;;;;;;5055885;28;20820;-51
2022/07/10 09:37:18;;;;;;;4.77;1.43;;;24.20;61.50;;;;;;5058752;28;20819;-51
2022/07/10 09:39:52;;;;;;;7.27;1.13;;;24.10;60.60;;;;;;5049583;28;20475;-51
2022/07/10 09:42:30;;;;;;;5.30;1.20;;;24.30;61.50;;;;;;5064854;28;20468;-51
2022/07/10 09:45:18;;;;;;;2.83;1.23;;;24.30;60.50;;;;;;5059939;28;20471;-51
2022/07/10 09:47:54;;;;;;;4.40;1.40;;;24.40;61.40;;;;;;5052009;28;20471;-50
2022/07/10 09:50:24;;;;;;;1.80;1.23;;;24.40;62.50;;;;;;5032809;28;20562;-51
2022/07/10 09:52:52;;;;;;;6.77;2.13;;;24.60;60.60;;;;;;5032927;28;21024;-50
2022/07/10 09:55:21;;;;;;;3.40;1.00;;;24.70;60.90;;;;;;5053356;28;20494;-50
2022/07/10 09:57:54;;;;;;;1.90;0.87;;;24.70;60.70;;;;;;5052845;28;20508;-51
2022/07/10 10:00:26;;;;;;;4.37;1.50;;;24.80;59.70;;;;;;5058828;28;20573;-52
2022/07/10 10:02:56;;;;;;;2.00;0.83;;;24.90;59.90;;;;;;5063120;28;20467;-51
2022/07/10 10:05:32;;;;;;;3.63;1.40;;;25.00;59.60;;;;;;5023296;28;20502;-50
2022/07/10 10:08:02;;;;;;;6.53;1.17;;;25.10;58.70;;;;;;5043875;28;20486;-51
2022/07/10 10:10:32;;;;;;;2.40;1.20;;;25.00;59.00;;;;;;5050529;28;20471;-51
2022/07/10 10:13:02;;;;;;;3.63;1.10;;;25.10;59.40;;;;;;5043567;28;20491;-52
2022/07/10 10:15:31;;;;;;;2.20;1.40;;;25.00;59.10;;;;;;5053508;28;20912;-52
2022/07/10 10:18:00;;;;;;;2.00;0.90;;;25.20;58.80;;;;;;5055419;28;20910;-51
2022/07/10 10:20:41;;;;;;;2.73;1.30;;;25.20;59.50;;;;;;5058983;28;20844;-52
2022/07/10 10:23:11;;;;;;;5.10;1.00;;;25.10;58.40;;;;;;5062486;28;20494;-50
2022/07/10 10:25:39;;;;;;;3.53;1.20;;;25.00;58.80;;;;;;5056647;28;20570;-53
2022/07/10 10:28:09;;;;;;;3.00;1.10;;;24.90;57.70;;;;;;5059026;28;20493;-52
2022/07/10 10:30:39;;;;;;;5.03;2.40;;;25.10;59.40;;;;;;5055412;28;20486;-50
2022/07/10 10:33:46;;;;;;;1.80;1.00;;;25.20;61.00;;;;;;5060757;28;20582;-51
2022/07/10 10:36:17;;;;;;;2.07;1.23;;;25.50;59.60;;;;;;5058026;28;21015;-52
2022/07/10 10:39:04;;;;;;;2.00;0.90;;;25.40;57.80;;;;;;5059962;28;20548;-52
2022/07/10 10:41:37;;;;;;;7.40;1.73;;;25.30;58.70;;;;;;5045903;28;20483;-51
2022/07/10 10:44:24;;;;;;;4.20;1.40;;;25.30;60.50;;;;;;5052098;28;20486;-52
2022/07/10 10:47:00;;;;;;;2.60;1.27;;;25.30;60.10;;;;;;5050626;28;20526;-51
2022/07/10 10:49:52;;;;;;;3.33;1.20;;;25.40;58.40;;;;;;5032233;28;21019;-52
2022/07/10 10:52:21;;;;;;;5.50;1.60;;;25.50;58.50;;;;;;5057195;28;20463;-51
2022/07/10 10:55:12;;;;;;;3.10;1.07;;;25.30;57.20;;;;;;5055554;28;20490;-50
2022/07/10 10:57:50;;;;;;;3.00;2.17;;;;;;;;;;5056072;28;20475;-51
2022/07/10 11:00:41;;;;;;;4.33;1.30;;;25.40;58.30;;;;;;5054116;28;21024;-52
2022/07/10 11:03:16;;;;;;;5.73;1.43;;;25.40;59.40;;;;;;5056134;28;20544;-51
2022/07/10 11:05:45;;;;;;;4.63;1.00;;;25.40;58.40;;;;;;5057168;28;21010;-52
2022/07/10 11:08:13;;;;;;;2.93;1.40;;;;;;;;;;5049496;28;20493;-51
2022/07/10 11:10:41;;;;;;;1.90;1.10;;;25.50;58.70;;;;;;5058283;28;20996;-50
2022/07/10 11:13:10;;;;;;;3.50;1.53;;;25.30;55.40;;;;;;5059559;28;20513;-50
2022/07/10 11:15:38;;;;;;;3.50;1.80;;;25.30;57.00;;;;;;5056510;28;20483;-51
2022/07/10 11:18:07;;;;;;;4.90;1.50;;;25.30;59.50;;;;;;5056460;28;20479;-52
2022/07/10 11:20:35;;;;;;;2.97;1.27;;;25.50;60.20;;;;;;5054743;28;20494;-52
2022/07/10 11:23:29;;;;;;;3.57;1.37;;;25.60;60.10;;;;;;5059000;28;20558;-51
2022/07/10 11:26:07;;;;;;;2.83;1.50;;;25.90;59.70;;;;;;5058205;28;20564;-51
2022/07/10 11:28:43;;;;;;;5.73;2.40;;;26.20;59.50;;;;;;5042715;28;20489;-53
2022/07/10 11:31:10;;;;;;;2.67;1.47;;;26.30;58.40;;;;;;5057275;28;20489;-52
2022/07/10 11:33:42;;;;;;;5.50;1.60;;;26.40;57.70;;;;;;5057272;28;20483;-51
2022/07/10 11:36:13;;;;;;;2.40;1.30;;;26.40;58.50;;;;;;5060180;28;20483;-52
2022/07/10 11:38:43;;;;;;;3.57;1.30;;;26.70;57.20;;;;;;5046672;28;20566;-51
2022/07/10 11:41:17;;;;;;;3.00;1.40;;;26.70;58.10;;;;;;5070540;28;20481;-52
2022/07/10 11:43:48;;;;;;;1.83;1.20;;;26.90;59.50;;;;;;5057410;28;20491;-51
2022/07/10 11:46:15;;;;;;;5.03;1.20;;;27.10;58.50;;;;;;5053393;28;20494;-52
2022/07/10 11:48:42;;;;;;;2.23;1.30;;;27.10;59.50;;;;;;5049172;28;20519;-52
2022/07/10 11:51:22;;;;;;;4.57;1.43;;;27.10;56.40;;;;;;5046298;28;20458;-51
2022/07/10 11:53:59;;;;;;;2.53;1.17;;;27.00;56.50;;;;;;5048137;28;20585;-52
2022/07/10 11:56:26;;;;;;;2.40;1.40;;;26.90;57.00;;;;;;5038548;28;20457;-52
2022/07/10 11:58:58;;;;;;;7.77;2.07;;;26.80;56.80;;;;;;5059336;28;20485;-52
2022/07/10 12:01:25;;;;;;;6.10;1.73;;;26.90;58.00;;;;;;5045050;28;20480;-51
2022/07/10 12:03:56;;;;;;;2.80;1.60;;;26.90;56.50;;;;;;5049219;28;21022;-52
2022/07/10 12:06:24;;;;;;;3.47;1.60;;;26.90;57.10;;;;;;5054758;28;20575;-51
2022/07/10 12:08:52;;;;;;;2.30;1.33;;;26.90;56.70;;;;;;5059602;28;20794;-51
2022/07/10 12:11:21;;;;;;;2.20;1.40;;;27.00;56.90;;;;;;5049754;28;20483;-54
2022/07/10 12:13:50;;;;;;;1.90;1.33;;;26.90;55.80;;;;;;5056828;28;20509;-51
2022/07/10 12:16:17;;;;;;;4.43;1.83;;;26.70;55.60;;;;;;5049393;28;20597;-51
2022/07/10 12:18:45;;;;;;;3.40;1.23;;;26.60;57.00;;;;;;5050629;28;20589;-51
2022/07/10 12:21:14;;;;;;;3.70;1.43;;;26.60;55.80;;;;;;5054400;28;20479;-51
2022/07/10 12:23:42;;;;;;;3.50;1.37;;;26.60;57.70;;;;;;5058434;28;20478;-50
2022/07/10 12:26:13;;;;;;;4.33;1.40;;;26.30;55.80;;;;;;5048019;28;20471;-48
2022/07/10 12:28:54;;;;;;;2.53;1.33;;;26.20;58.50;;;;;;5058947;28;20486;-51
2022/07/10 12:31:23;;;;;;;5.23;1.80;;;26.30;58.40;;;;;;5059447;28;20488;-50
2022/07/10 12:33:54;;;;;;;2.80;1.73;;;26.30;57.20;;;;;;5057574;28;20470;-49
2022/07/10 12:36:21;;;;;;;2.13;1.40;;;26.30;58.10;;;;;;5058309;28;20486;-49
2022/07/10 12:38:55;;;;;;;3.50;1.67;;;26.60;58.60;;;;;;5061473;28;20898;-51
2022/07/10 12:41:24;;;;;;;2.20;1.30;;;26.80;58.30;;;;;;5062379;28;20577;-54
2022/07/10 12:43:53;;;;;;;3.73;1.40;;;26.80;55.90;;;;;;5058291;28;20453;-51
2022/07/10 12:46:22;;;;;;;3.17;1.93;;;26.90;56.70;;;;;;5047501;28;20483;-50
2022/07/10 12:49:06;;;;;;;5.93;1.60;;;27.30;57.30;;;;;;5057797;28;20540;-51
2022/07/10 12:51:34;;;;;;;2.80;1.97;;;27.60;57.10;;;;;;5060368;28;21432;-51
2022/07/10 12:54:00;;;;;;;6.53;1.83;;;27.80;56.40;;;;;;5055903;28;21005;-51
2022/07/10 12:56:32;;;;;;;2.87;1.60;;;27.80;56.40;;;;;;5046245;28;20494;-53
2022/07/10 12:59:01;;;;;;;3.90;2.10;;;27.90;56.80;;;;;;5050697;28;20897;-50
2022/07/10 13:01:29;;;;;;;2.90;1.97;;;27.90;56.90;;;;;;5061052;28;20482;-52